sensor_id;sensor_type;location;lat;lon;timestamp;P1;durP1;ratioP1;P2;durP2;ratioP2
17214;SDS011;8723;51.502;6.918;2023-05-15T00:01:56;736.85;;;699.25;;
17214;SDS011;8723;51.502;6.918;2023-05-15T00:04:23;793.03;;;750.20;;
17214;SDS011;8723;51.502;6.918;2023-05-15T00:06:50;761.13;;;720.95;;
17214;SDS011;8723;51.502;6.918;2023-05-15T00:09:18;772.47;;;730.83;;
17214;SDS011;8723;51.502;6.918;2023-05-15T00:11:45;812.70;;;767.13;;
17214;SDS011;8723;51.502;6.918;2023-05-15T00:14:12;717.50;;;679.77;;
17214;SDS011;8723;51.502;6.918;2023-05-15T00:16:39;741.67;;;701.40;;
17214;SDS011;8723;51.502;6.918;2023-05-15T00:19:06;767.15;;;725.20;;
17214;SDS011;8723;51.502;6.918;2023-05-15T00:21:33;738.33;;;698.42;;
17214;SDS011;8723;51.502;6.918;2023-05-15T00:23:59;756.65;;;715.50;;
17214;SDS011;8723;51.502;6.918;2023-05-15T00:26:27;742.33;;;702.38;;
17214;SDS011;8723;51.502;6.918;2023-05-15T00:28:55;707.85;;;670.85;;
17214;SDS011;8723;51.502;6.918;2023-05-15T00:31:23;694.92;;;658.83;;
17214;SDS011;8723;51.502;6.918;2023-05-15T00:33:49;729.72;;;690.72;;
17214;SDS011;8723;51.502;6.918;2023-05-15T00:36:16;730.75;;;691.72;;
17214;SDS011;8723;51.502;6.918;2023-05-15T00:38:45;708.63;;;670.55;;
17214;SDS011;8723;51.502;6.918;2023-05-15T00:41:12;725.80;;;686.55;;
17214;SDS011;8723;51.502;6.918;2023-05-15T00:43:42;737.60;;;697.13;;
17214;SDS011;8723;51.502;6.918;2023-05-15T00:46:11;769.22;;;725.90;;
17214;SDS011;8723;51.502;6.918;2023-05-15T00:48:38;769.95;;;726.55;;
17214;SDS011;8723;51.502;6.918;2023-05-15T00:51:06;799.53;;;753.60;;
17214;SDS011;8723;51.502;6.918;2023-05-15T00:53:33;803.97;;;756.88;;
17214;SDS011;8723;51.502;6.918;2023-05-15T00:56:01;804.15;;;757.22;;
17214;SDS011;8723;51.502;6.918;2023-05-15T00:58:30;799.70;;;753.10;;
17214;SDS011;8723;51.502;6.918;2023-05-15T01:01:00;783.63;;;737.93;;
17214;SDS011;8723;51.502;6.918;2023-05-15T01:03:27;757.50;;;715.33;;
17214;SDS011;8723;51.502;6.918;2023-05-15T01:05:55;726.95;;;687.50;;
17214;SDS011;8723;51.502;6.918;2023-05-15T01:08:22;649.75;;;615.88;;
17214;SDS011;8723;51.502;6.918;2023-05-15T01:10:57;703.13;;;666.23;;
17214;SDS011;8723;51.502;6.918;2023-05-15T01:13:25;685.83;;;650.45;;
17214;SDS011;8723;51.502;6.918;2023-05-15T01:15:53;713.55;;;675.83;;
17214;SDS011;8723;51.502;6.918;2023-05-15T01:18:21;700.42;;;663.90;;
17214;SDS011;8723;51.502;6.918;2023-05-15T01:20:56;740.17;;;699.70;;
17214;SDS011;8723;51.502;6.918;2023-05-15T01:23:56;759.53;;;717.57;;
17214;SDS011;8723;51.502;6.918;2023-05-15T01:29:32;767.75;;;725.47;;
17214;SDS011;8723;51.502;6.918;2023-05-15T01:32:08;708.30;;;670.13;;
17214;SDS011;8723;51.502;6.918;2023-05-15T01:34:43;748.10;;;707.25;;
17214;SDS011;8723;51.502;6.918;2023-05-15T01:37:18;722.20;;;683.80;;
17214;SDS011;8723;51.502;6.918;2023-05-15T01:39:50;710.42;;;672.67;;
17214;SDS011;8723;51.502;6.918;2023-05-15T01:42:23;750.47;;;709.17;;
17214;SDS011;8723;51.502;6.918;2023-05-15T01:44:57;752.40;;;710.30;;
17214;SDS011;8723;51.502;6.918;2023-05-15T01:47:29;741.92;;;701.38;;
17214;SDS011;8723;51.502;6.918;2023-05-15T01:50:09;740.97;;;700.22;;
17214;SDS011;8723;51.502;6.918;2023-05-15T01:52:42;747.38;;;706.17;;
17214;SDS011;8723;51.502;6.918;2023-05-15T01:55:15;728.63;;;688.95;;
17214;SDS011;8723;51.502;6.918;2023-05-15T01:57:47;728.22;;;688.35;;
17214;SDS011;8723;51.502;6.918;2023-05-15T02:00:19;741.28;;;700.33;;
17214;SDS011;8723;51.502;6.918;2023-05-15T02:02:49;763.83;;;720.45;;
17214;SDS011;8723;51.502;6.918;2023-05-15T02:05:19;782.47;;;737.63;;
17214;SDS011;8723;51.502;6.918;2023-05-15T02:07:49;802.55;;;755.83;;
17214;SDS011;8723;51.502;6.918;2023-05-15T02:10:17;814.13;;;765.72;;
17214;SDS011;8723;51.502;6.918;2023-05-15T02:12:44;797.45;;;751.15;;
17214;SDS011;8723;51.502;6.918;2023-05-15T02:15:14;798.60;;;752.07;;
17214;SDS011;8723;51.502;6.918;2023-05-15T02:17:44;779.57;;;734.93;;
17214;SDS011;8723;51.502;6.918;2023-05-15T02:20:13;798.25;;;752.25;;
17214;SDS011;8723;51.502;6.918;2023-05-15T02:22:43;818.47;;;770.33;;
17214;SDS011;8723;51.502;6.918;2023-05-15T02:25:13;821.05;;;772.78;;
17214;SDS011;8723;51.502;6.918;2023-05-15T02:27:45;818.00;;;769.20;;
17214;SDS011;8723;51.502;6.918;2023-05-15T02:30:22;766.72;;;721.58;;
17214;SDS011;8723;51.502;6.918;2023-05-15T02:32:59;791.45;;;743.40;;
17214;SDS011;8723;51.502;6.918;2023-05-15T02:35:41;759.97;;;715.22;;
17214;SDS011;8723;51.502;6.918;2023-05-15T02:38:15;748.20;;;704.90;;
17214;SDS011;8723;51.502;6.918;2023-05-15T02:40:44;747.35;;;705.53;;
17214;SDS011;8723;51.502;6.918;2023-05-15T02:43:16;720.40;;;682.17;;
17214;SDS011;8723;51.502;6.918;2023-05-15T02:45:44;694.72;;;657.80;;
17214;SDS011;8723;51.502;6.918;2023-05-15T02:48:11;719.97;;;680.35;;
17214;SDS011;8723;51.502;6.918;2023-05-15T02:50:39;729.92;;;690.38;;
17214;SDS011;8723;51.502;6.918;2023-05-15T02:53:06;711.47;;;673.85;;
17214;SDS011;8723;51.502;6.918;2023-05-15T02:55:33;768.35;;;725.47;;
17214;SDS011;8723;51.502;6.918;2023-05-15T02:58:01;694.90;;;657.33;;
17214;SDS011;8723;51.502;6.918;2023-05-15T03:00:30;790.67;;;744.20;;
17214;SDS011;8723;51.502;6.918;2023-05-15T03:02:57;796.22;;;749.63;;
17214;SDS011;8723;51.502;6.918;2023-05-15T03:05:27;845.47;;;793.42;;
17214;SDS011;8723;51.502;6.918;2023-05-15T03:07:56;777.25;;;731.38;;
17214;SDS011;8723;51.502;6.918;2023-05-15T03:10:27;894.60;;;836.90;;
17214;SDS011;8723;51.502;6.918;2023-05-15T03:12:56;884.83;;;827.97;;
17214;SDS011;8723;51.502;6.918;2023-05-15T03:15:25;917.13;;;857.10;;
17214;SDS011;8723;51.502;6.918;2023-05-15T03:17:53;900.38;;;842.10;;
17214;SDS011;8723;51.502;6.918;2023-05-15T03:20:20;901.58;;;843.17;;
17214;SDS011;8723;51.502;6.918;2023-05-15T03:22:47;888.35;;;831.50;;
17214;SDS011;8723;51.502;6.918;2023-05-15T03:25:14;885.23;;;829.43;;
17214;SDS011;8723;51.502;6.918;2023-05-15T03:27:41;869.72;;;815.97;;
17214;SDS011;8723;51.502;6.918;2023-05-15T03:30:08;910.92;;;854.15;;
17214;SDS011;8723;51.502;6.918;2023-05-15T03:32:35;877.22;;;824.45;;
17214;SDS011;8723;51.502;6.918;2023-05-15T03:35:04;752.70;;;709.08;;
17214;SDS011;8723;51.502;6.918;2023-05-15T03:37:31;582.63;;;552.00;;
17214;SDS011;8723;51.502;6.918;2023-05-15T03:39:58;547.05;;;520.22;;
17214;SDS011;8723;51.502;6.918;2023-05-15T03:42:24;528.72;;;502.60;;
17214;SDS011;8723;51.502;6.918;2023-05-15T03:44:52;525.47;;;500.13;;
17214;SDS011;8723;51.502;6.918;2023-05-15T03:47:20;571.38;;;542.40;;
17214;SDS011;8723;51.502;6.918;2023-05-15T03:49:47;717.10;;;674.60;;
17214;SDS011;8723;51.502;6.918;2023-05-15T03:52:15;810.45;;;763.13;;
17214;SDS011;8723;51.502;6.918;2023-05-15T03:54:42;839.65;;;790.08;;
17214;SDS011;8723;51.502;6.918;2023-05-15T03:57:09;804.47;;;758.17;;
17214;SDS011;8723;51.502;6.918;2023-05-15T03:59:35;809.75;;;762.50;;
17214;SDS011;8723;51.502;6.918;2023-05-15T04:02:02;778.30;;;733.92;;
17214;SDS011;8723;51.502;6.918;2023-05-15T04:04:29;500.63;;;472.25;;
17214;SDS011;8723;51.502;6.918;2023-05-15T04:06:56;813.83;;;766.83;;
17214;SDS011;8723;51.502;6.918;2023-05-15T04:09:24;840.03;;;790.33;;
17214;SDS011;8723;51.502;6.918;2023-05-15T04:11:51;829.50;;;780.85;;
17214;SDS011;8723;51.502;6.918;2023-05-15T04:14:17;644.40;;;608.07;;
17214;SDS011;8723;51.502;6.918;2023-05-15T04:16:44;291.80;;;279.25;;
17214;SDS011;8723;51.502;6.918;2023-05-15T04:19:11;245.02;;;234.00;;
17214;SDS011;8723;51.502;6.918;2023-05-15T04:21:38;189.45;;;180.73;;
17214;SDS011;8723;51.502;6.918;2023-05-15T04:24:06;121.90;;;115.50;;
17214;SDS011;8723;51.502;6.918;2023-05-15T04:26:34;117.85;;;111.65;;
17214;SDS011;8723;51.502;6.918;2023-05-15T04:29:01;124.00;;;117.38;;
17214;SDS011;8723;51.502;6.918;2023-05-15T04:31:29;127.15;;;120.60;;
17214;SDS011;8723;51.502;6.918;2023-05-15T04:33:56;120.93;;;114.32;;
17214;SDS011;8723;51.502;6.918;2023-05-15T04:36:23;129.60;;;122.97;;
17214;SDS011;8723;51.502;6.918;2023-05-15T04:38:50;106.20;;;100.47;;
17214;SDS011;8723;51.502;6.918;2023-05-15T04:41:17;108.43;;;102.70;;
17214;SDS011;8723;51.502;6.918;2023-05-15T04:43:45;115.63;;;109.47;;
17214;SDS011;8723;51.502;6.918;2023-05-15T04:46:12;113.60;;;107.57;;
17214;SDS011;8723;51.502;6.918;2023-05-15T04:48:39;99.77;;;94.07;;
17214;SDS011;8723;51.502;6.918;2023-05-15T04:51:05;100.97;;;95.13;;
17214;SDS011;8723;51.502;6.918;2023-05-15T04:53:32;111.03;;;105.10;;
17214;SDS011;8723;51.502;6.918;2023-05-15T04:55:59;133.10;;;126.00;;
17214;SDS011;8723;51.502;6.918;2023-05-15T04:58:26;168.82;;;160.75;;
17214;SDS011;8723;51.502;6.918;2023-05-15T05:00:54;106.22;;;100.13;;
17214;SDS011;8723;51.502;6.918;2023-05-15T05:03:21;89.57;;;84.18;;
17214;SDS011;8723;51.502;6.918;2023-05-15T05:05:48;128.27;;;121.30;;
17214;SDS011;8723;51.502;6.918;2023-05-15T05:08:14;110.25;;;104.07;;
17214;SDS011;8723;51.502;6.918;2023-05-15T05:10:41;114.60;;;108.13;;
17214;SDS011;8723;51.502;6.918;2023-05-15T05:13:08;121.30;;;114.90;;
17214;SDS011;8723;51.502;6.918;2023-05-15T05:15:35;117.37;;;111.07;;
17214;SDS011;8723;51.502;6.918;2023-05-15T05:18:03;192.83;;;183.77;;
17214;SDS011;8723;51.502;6.918;2023-05-15T05:20:31;153.40;;;145.65;;
17214;SDS011;8723;51.502;6.918;2023-05-15T05:22:57;132.43;;;125.70;;
17214;SDS011;8723;51.502;6.918;2023-05-15T05:25:24;106.85;;;100.85;;
17214;SDS011;8723;51.502;6.918;2023-05-15T05:27:51;128.45;;;121.68;;
17214;SDS011;8723;51.502;6.918;2023-05-15T05:30:18;104.65;;;98.78;;
17214;SDS011;8723;51.502;6.918;2023-05-15T05:32:46;115.68;;;109.60;;
17214;SDS011;8723;51.502;6.918;2023-05-15T05:35:14;95.82;;;90.38;;
17214;SDS011;8723;51.502;6.918;2023-05-15T05:37:41;79.65;;;74.63;;
17214;SDS011;8723;51.502;6.918;2023-05-15T05:40:08;78.00;;;73.00;;
17214;SDS011;8723;51.502;6.918;2023-05-15T05:42:35;147.02;;;139.30;;
17214;SDS011;8723;51.502;6.918;2023-05-15T05:45:02;106.90;;;100.70;;
17214;SDS011;8723;51.502;6.918;2023-05-15T05:47:30;101.80;;;95.77;;
17214;SDS011;8723;51.502;6.918;2023-05-15T05:49:57;238.10;;;227.15;;
17214;SDS011;8723;51.502;6.918;2023-05-15T05:52:25;378.10;;;357.60;;
17214;SDS011;8723;51.502;6.918;2023-05-15T05:54:53;286.73;;;273.50;;
17214;SDS011;8723;51.502;6.918;2023-05-15T05:57:19;300.25;;;286.20;;
17214;SDS011;8723;51.502;6.918;2023-05-15T05:59:46;413.20;;;390.52;;
17214;SDS011;8723;51.502;6.918;2023-05-15T06:02:13;606.00;;;570.40;;
17214;SDS011;8723;51.502;6.918;2023-05-15T06:04:40;323.27;;;308.60;;
17214;SDS011;8723;51.502;6.918;2023-05-15T06:07:07;320.30;;;306.23;;
17214;SDS011;8723;51.502;6.918;2023-05-15T06:09:35;336.23;;;321.50;;
17214;SDS011;8723;51.502;6.918;2023-05-15T06:12:02;364.83;;;348.80;;
17214;SDS011;8723;51.502;6.918;2023-05-15T06:14:32;353.52;;;338.45;;
17214;SDS011;8723;51.502;6.918;2023-05-15T06:16:58;339.75;;;325.13;;
17214;SDS011;8723;51.502;6.918;2023-05-15T06:19:26;332.98;;;318.80;;
17214;SDS011;8723;51.502;6.918;2023-05-15T06:21:52;357.25;;;342.00;;
17214;SDS011;8723;51.502;6.918;2023-05-15T06:24:19;339.58;;;325.27;;
17214;SDS011;8723;51.502;6.918;2023-05-15T06:26:47;345.52;;;330.73;;
17214;SDS011;8723;51.502;6.918;2023-05-15T06:29:14;349.30;;;334.52;;
17214;SDS011;8723;51.502;6.918;2023-05-15T06:31:41;340.85;;;326.35;;
17214;SDS011;8723;51.502;6.918;2023-05-15T06:34:08;334.52;;;320.20;;
17214;SDS011;8723;51.502;6.918;2023-05-15T06:36:34;332.87;;;318.70;;
17214;SDS011;8723;51.502;6.918;2023-05-15T06:39:01;322.70;;;309.10;;
17214;SDS011;8723;51.502;6.918;2023-05-15T06:41:29;308.05;;;294.92;;
17214;SDS011;8723;51.502;6.918;2023-05-15T06:43:58;333.52;;;319.00;;
17214;SDS011;8723;51.502;6.918;2023-05-15T06:46:25;285.90;;;273.80;;
17214;SDS011;8723;51.502;6.918;2023-05-15T06:48:52;322.88;;;308.77;;
17214;SDS011;8723;51.502;6.918;2023-05-15T06:51:18;293.05;;;280.83;;
17214;SDS011;8723;51.502;6.918;2023-05-15T06:53:45;226.00;;;216.40;;
17214;SDS011;8723;51.502;6.918;2023-05-15T06:56:12;206.23;;;197.70;;
17214;SDS011;8723;51.502;6.918;2023-05-15T06:58:39;204.52;;;195.98;;
17214;SDS011;8723;51.502;6.918;2023-05-15T07:01:08;407.05;;;389.95;;
17214;SDS011;8723;51.502;6.918;2023-05-15T07:03:35;131.70;;;125.60;;
17214;SDS011;8723;51.502;6.918;2023-05-15T07:06:02;122.78;;;117.03;;
17214;SDS011;8723;51.502;6.918;2023-05-15T07:08:29;122.67;;;117.17;;
17214;SDS011;8723;51.502;6.918;2023-05-15T07:10:56;127.80;;;121.93;;
17214;SDS011;8723;51.502;6.918;2023-05-15T07:13:22;103.78;;;98.93;;
17214;SDS011;8723;51.502;6.918;2023-05-15T07:15:50;106.47;;;101.38;;
17214;SDS011;8723;51.502;6.918;2023-05-15T07:18:18;112.13;;;106.88;;
17214;SDS011;8723;51.502;6.918;2023-05-15T07:20:44;119.45;;;113.82;;
17214;SDS011;8723;51.502;6.918;2023-05-15T07:23:11;102.05;;;97.18;;
17214;SDS011;8723;51.502;6.918;2023-05-15T07:25:38;108.10;;;103.18;;
17214;SDS011;8723;51.502;6.918;2023-05-15T07:28:05;87.18;;;82.97;;
17214;SDS011;8723;51.502;6.918;2023-05-15T07:30:32;92.50;;;88.07;;
17214;SDS011;8723;51.502;6.918;2023-05-15T07:32:58;102.22;;;97.53;;
17214;SDS011;8723;51.502;6.918;2023-05-15T07:35:27;99.20;;;94.43;;
17214;SDS011;8723;51.502;6.918;2023-05-15T07:37:53;94.60;;;89.97;;
17214;SDS011;8723;51.502;6.918;2023-05-15T07:40:20;193.68;;;185.35;;
17214;SDS011;8723;51.502;6.918;2023-05-15T07:42:47;94.05;;;89.50;;
17214;SDS011;8723;51.502;6.918;2023-05-15T07:45:14;90.90;;;86.38;;
17214;SDS011;8723;51.502;6.918;2023-05-15T07:47:43;98.35;;;93.55;;
17214;SDS011;8723;51.502;6.918;2023-05-15T07:50:11;111.10;;;106.13;;
17214;SDS011;8723;51.502;6.918;2023-05-15T07:52:39;166.63;;;158.65;;
17214;SDS011;8723;51.502;6.918;2023-05-15T07:55:07;118.10;;;112.63;;
17214;SDS011;8723;51.502;6.918;2023-05-15T07:57:34;137.35;;;131.40;;
17214;SDS011;8723;51.502;6.918;2023-05-15T08:00:01;160.65;;;153.55;;
17214;SDS011;8723;51.502;6.918;2023-05-15T08:02:34;162.93;;;155.93;;
17214;SDS011;8723;51.502;6.918;2023-05-15T08:05:00;149.75;;;143.25;;
17214;SDS011;8723;51.502;6.918;2023-05-15T08:07:29;159.57;;;152.60;;
17214;SDS011;8723;51.502;6.918;2023-05-15T08:09:57;125.75;;;119.93;;
17214;SDS011;8723;51.502;6.918;2023-05-15T08:12:24;161.03;;;153.93;;
17214;SDS011;8723;51.502;6.918;2023-05-15T08:14:52;183.02;;;175.07;;
17214;SDS011;8723;51.502;6.918;2023-05-15T08:17:20;162.43;;;155.00;;
17214;SDS011;8723;51.502;6.918;2023-05-15T08:19:47;150.57;;;143.95;;
17214;SDS011;8723;51.502;6.918;2023-05-15T08:22:14;179.65;;;171.68;;
17214;SDS011;8723;51.502;6.918;2023-05-15T08:24:41;128.68;;;122.95;;
17214;SDS011;8723;51.502;6.918;2023-05-15T08:27:10;121.07;;;115.47;;
17214;SDS011;8723;51.502;6.918;2023-05-15T08:29:37;136.73;;;130.63;;
17214;SDS011;8723;51.502;6.918;2023-05-15T08:32:04;139.07;;;132.80;;
17214;SDS011;8723;51.502;6.918;2023-05-15T08:34:32;133.00;;;127.10;;
17214;SDS011;8723;51.502;6.918;2023-05-15T08:36:59;129.47;;;123.67;;
17214;SDS011;8723;51.502;6.918;2023-05-15T08:39:25;132.60;;;126.60;;
17214;SDS011;8723;51.502;6.918;2023-05-15T08:41:55;111.80;;;106.53;;
17214;SDS011;8723;51.502;6.918;2023-05-15T08:44:25;124.60;;;118.68;;
17214;SDS011;8723;51.502;6.918;2023-05-15T08:46:53;130.60;;;124.65;;
17214;SDS011;8723;51.502;6.918;2023-05-15T08:49:22;108.50;;;103.43;;
17214;SDS011;8723;51.502;6.918;2023-05-15T08:51:56;131.07;;;125.50;;
17214;SDS011;8723;51.502;6.918;2023-05-15T08:54:23;124.63;;;119.15;;
17214;SDS011;8723;51.502;6.918;2023-05-15T08:56:50;73.40;;;69.90;;
17214;SDS011;8723;51.502;6.918;2023-05-15T08:59:17;131.38;;;125.65;;
17214;SDS011;8723;51.502;6.918;2023-05-15T09:01:46;109.53;;;104.15;;
17214;SDS011;8723;51.502;6.918;2023-05-15T09:04:13;43.97;;;41.47;;
17214;SDS011;8723;51.502;6.918;2023-05-15T09:06:40;150.45;;;143.95;;
17214;SDS011;8723;51.502;6.918;2023-05-15T09:09:09;64.43;;;61.03;;
17214;SDS011;8723;51.502;6.918;2023-05-15T09:11:38;131.73;;;126.10;;
17214;SDS011;8723;51.502;6.918;2023-05-15T09:14:08;39.95;;;37.65;;
17214;SDS011;8723;51.502;6.918;2023-05-15T09:16:36;82.78;;;78.78;;
17214;SDS011;8723;51.502;6.918;2023-05-15T09:19:05;68.75;;;65.10;;
17214;SDS011;8723;51.502;6.918;2023-05-15T09:21:32;76.60;;;73.10;;
17214;SDS011;8723;51.502;6.918;2023-05-15T09:24:15;91.53;;;87.43;;
17214;SDS011;8723;51.502;6.918;2023-05-15T09:26:44;61.17;;;58.17;;
17214;SDS011;8723;51.502;6.918;2023-05-15T09:29:14;34.35;;;32.55;;
17214;SDS011;8723;51.502;6.918;2023-05-15T09:31:42;75.85;;;72.40;;
17214;SDS011;8723;51.502;6.918;2023-05-15T09:34:12;45.75;;;43.30;;
17214;SDS011;8723;51.502;6.918;2023-05-15T09:36:42;40.40;;;38.28;;
17214;SDS011;8723;51.502;6.918;2023-05-15T09:39:09;62.17;;;58.80;;
17214;SDS011;8723;51.502;6.918;2023-05-15T09:41:36;72.68;;;69.07;;
17214;SDS011;8723;51.502;6.918;2023-05-15T09:44:16;65.43;;;62.30;;
17214;SDS011;8723;51.502;6.918;2023-05-15T09:46:44;69.93;;;66.63;;
17214;SDS011;8723;51.502;6.918;2023-05-15T09:49:12;69.40;;;66.18;;
17214;SDS011;8723;51.502;6.918;2023-05-15T09:51:41;56.25;;;53.47;;
17214;SDS011;8723;51.502;6.918;2023-05-15T09:54:12;39.58;;;37.55;;
17214;SDS011;8723;51.502;6.918;2023-05-15T09:56:41;55.97;;;53.33;;
17214;SDS011;8723;51.502;6.918;2023-05-15T09:59:11;43.67;;;41.47;;
17214;SDS011;8723;51.502;6.918;2023-05-15T10:01:41;40.92;;;38.72;;
17214;SDS011;8723;51.502;6.918;2023-05-15T10:04:10;41.83;;;39.83;;
17214;SDS011;8723;51.502;6.918;2023-05-15T10:06:39;39.97;;;37.83;;
17214;SDS011;8723;51.502;6.918;2023-05-15T10:09:07;64.97;;;61.75;;
17214;SDS011;8723;51.502;6.918;2023-05-15T10:11:35;45.57;;;43.17;;
17214;SDS011;8723;51.502;6.918;2023-05-15T10:14:04;46.22;;;43.92;;
17214;SDS011;8723;51.502;6.918;2023-05-15T10:16:32;52.15;;;49.45;;
17214;SDS011;8723;51.502;6.918;2023-05-15T10:19:01;45.28;;;42.95;;
17214;SDS011;8723;51.502;6.918;2023-05-15T10:21:29;57.20;;;54.28;;
17214;SDS011;8723;51.502;6.918;2023-05-15T10:24:00;69.10;;;65.87;;
17214;SDS011;8723;51.502;6.918;2023-05-15T10:26:29;74.55;;;71.10;;
17214;SDS011;8723;51.502;6.918;2023-05-15T10:29:03;82.10;;;78.18;;
17214;SDS011;8723;51.502;6.918;2023-05-15T10:31:32;68.70;;;65.40;;
17214;SDS011;8723;51.502;6.918;2023-05-15T10:33:59;63.20;;;60.15;;
17214;SDS011;8723;51.502;6.918;2023-05-15T10:36:27;61.03;;;58.13;;
17214;SDS011;8723;51.502;6.918;2023-05-15T10:38:55;57.07;;;54.07;;
17214;SDS011;8723;51.502;6.918;2023-05-15T10:41:24;62.03;;;58.30;;
17214;SDS011;8723;51.502;6.918;2023-05-15T10:43:53;63.10;;;60.03;;
17214;SDS011;8723;51.502;6.918;2023-05-15T10:46:23;52.28;;;49.78;;
17214;SDS011;8723;51.502;6.918;2023-05-15T10:48:50;62.65;;;59.63;;
17214;SDS011;8723;51.502;6.918;2023-05-15T10:51:22;55.35;;;52.65;;
17214;SDS011;8723;51.502;6.918;2023-05-15T10:53:50;47.93;;;45.60;;
17214;SDS011;8723;51.502;6.918;2023-05-15T10:56:17;43.92;;;41.78;;
17214;SDS011;8723;51.502;6.918;2023-05-15T10:58:47;39.72;;;37.53;;
17214;SDS011;8723;51.502;6.918;2023-05-15T11:01:24;46.85;;;44.58;;
17214;SDS011;8723;51.502;6.918;2023-05-15T11:04:03;30.75;;;28.83;;
17214;SDS011;8723;51.502;6.918;2023-05-15T11:06:33;33.55;;;31.80;;
17214;SDS011;8723;51.502;6.918;2023-05-15T11:12:03;48.08;;;45.88;;
17214;SDS011;8723;51.502;6.918;2023-05-15T11:14:33;31.73;;;30.25;;
17214;SDS011;8723;51.502;6.918;2023-05-15T11:17:02;23.15;;;21.77;;
17214;SDS011;8723;51.502;6.918;2023-05-15T11:19:37;31.17;;;29.55;;
17214;SDS011;8723;51.502;6.918;2023-05-15T11:22:25;25.80;;;24.40;;
17214;SDS011;8723;51.502;6.918;2023-05-15T11:24:57;146.55;;;140.27;;
17214;SDS011;8723;51.502;6.918;2023-05-15T11:27:25;260.00;;;249.32;;
17214;SDS011;8723;51.502;6.918;2023-05-15T11:30:05;86.40;;;82.50;;
17214;SDS011;8723;51.502;6.918;2023-05-15T11:32:43;37.78;;;35.95;;
17214;SDS011;8723;51.502;6.918;2023-05-15T11:35:17;63.30;;;60.17;;
17214;SDS011;8723;51.502;6.918;2023-05-15T11:37:46;56.10;;;53.58;;
17214;SDS011;8723;51.502;6.918;2023-05-15T11:40:17;30.95;;;29.52;;
17214;SDS011;8723;51.502;6.918;2023-05-15T11:42:59;56.40;;;53.90;;
17214;SDS011;8723;51.502;6.918;2023-05-15T11:45:34;43.17;;;41.13;;
17214;SDS011;8723;51.502;6.918;2023-05-15T11:48:03;112.47;;;107.72;;
17214;SDS011;8723;51.502;6.918;2023-05-15T11:50:32;46.17;;;44.03;;
17214;SDS011;8723;51.502;6.918;2023-05-15T11:53:00;33.88;;;32.00;;
17214;SDS011;8723;51.502;6.918;2023-05-15T11:55:29;39.13;;;37.20;;
17214;SDS011;8723;51.502;6.918;2023-05-15T11:57:57;49.17;;;46.80;;
17214;SDS011;8723;51.502;6.918;2023-05-15T12:00:24;45.95;;;43.65;;
17214;SDS011;8723;51.502;6.918;2023-05-15T12:02:52;108.95;;;104.35;;
17214;SDS011;8723;51.502;6.918;2023-05-15T12:05:20;95.65;;;91.18;;
17214;SDS011;8723;51.502;6.918;2023-05-15T12:07:47;62.23;;;59.60;;
17214;SDS011;8723;51.502;6.918;2023-05-15T12:10:14;69.10;;;66.10;;
17214;SDS011;8723;51.502;6.918;2023-05-15T12:12:41;117.20;;;112.20;;
17214;SDS011;8723;51.502;6.918;2023-05-15T12:15:10;117.93;;;112.70;;
17214;SDS011;8723;51.502;6.918;2023-05-15T12:17:37;128.43;;;122.57;;
17214;SDS011;8723;51.502;6.918;2023-05-15T12:20:07;108.88;;;103.75;;
17214;SDS011;8723;51.502;6.918;2023-05-15T12:22:36;131.87;;;126.27;;
17214;SDS011;8723;51.502;6.918;2023-05-15T12:25:04;121.32;;;116.07;;
17214;SDS011;8723;51.502;6.918;2023-05-15T12:27:32;188.38;;;180.30;;
17214;SDS011;8723;51.502;6.918;2023-05-15T12:29:59;268.43;;;257.70;;
17214;SDS011;8723;51.502;6.918;2023-05-15T12:32:27;151.15;;;144.38;;
17214;SDS011;8723;51.502;6.918;2023-05-15T12:34:57;77.63;;;74.20;;
17214;SDS011;8723;51.502;6.918;2023-05-15T12:37:25;47.70;;;45.20;;
17214;SDS011;8723;51.502;6.918;2023-05-15T12:39:53;79.03;;;75.32;;
17214;SDS011;8723;51.502;6.918;2023-05-15T12:42:21;72.30;;;68.90;;
17214;SDS011;8723;51.502;6.918;2023-05-15T12:44:49;59.17;;;56.45;;
17214;SDS011;8723;51.502;6.918;2023-05-15T12:47:21;65.10;;;62.15;;
17214;SDS011;8723;51.502;6.918;2023-05-15T12:49:48;48.10;;;45.63;;
17214;SDS011;8723;51.502;6.918;2023-05-15T12:52:15;49.80;;;47.35;;
17214;SDS011;8723;51.502;6.918;2023-05-15T12:54:43;103.30;;;99.03;;
17214;SDS011;8723;51.502;6.918;2023-05-15T12:57:11;31.67;;;29.77;;
17214;SDS011;8723;51.502;6.918;2023-05-15T12:59:39;26.27;;;24.67;;
17214;SDS011;8723;51.502;6.918;2023-05-15T13:02:09;58.72;;;56.00;;
17214;SDS011;8723;51.502;6.918;2023-05-15T13:04:36;126.40;;;120.63;;
17214;SDS011;8723;51.502;6.918;2023-05-15T13:07:03;101.18;;;96.88;;
17214;SDS011;8723;51.502;6.918;2023-05-15T13:09:31;109.20;;;104.53;;
17214;SDS011;8723;51.502;6.918;2023-05-15T13:12:01;93.18;;;88.95;;
17214;SDS011;8723;51.502;6.918;2023-05-15T13:14:31;76.82;;;72.70;;
17214;SDS011;8723;51.502;6.918;2023-05-15T13:16:58;87.20;;;83.10;;
17214;SDS011;8723;51.502;6.918;2023-05-15T13:19:26;106.45;;;101.80;;
17214;SDS011;8723;51.502;6.918;2023-05-15T13:21:53;74.05;;;70.55;;
17214;SDS011;8723;51.502;6.918;2023-05-15T13:24:20;77.80;;;73.97;;
17214;SDS011;8723;51.502;6.918;2023-05-15T13:26:47;90.25;;;85.85;;
17214;SDS011;8723;51.502;6.918;2023-05-15T13:29:15;134.55;;;128.63;;
17214;SDS011;8723;51.502;6.918;2023-05-15T13:31:42;118.75;;;113.32;;
17214;SDS011;8723;51.502;6.918;2023-05-15T13:34:09;168.90;;;161.50;;
17214;SDS011;8723;51.502;6.918;2023-05-15T13:36:36;110.65;;;105.68;;
17214;SDS011;8723;51.502;6.918;2023-05-15T13:39:02;110.13;;;104.70;;
17214;SDS011;8723;51.502;6.918;2023-05-15T13:41:30;124.77;;;118.40;;
17214;SDS011;8723;51.502;6.918;2023-05-15T13:43:57;70.57;;;67.05;;
17214;SDS011;8723;51.502;6.918;2023-05-15T13:46:26;132.35;;;126.47;;
17214;SDS011;8723;51.502;6.918;2023-05-15T13:48:53;133.93;;;128.00;;
17214;SDS011;8723;51.502;6.918;2023-05-15T13:51:20;85.43;;;81.43;;
17214;SDS011;8723;51.502;6.918;2023-05-15T13:53:46;83.00;;;78.90;;
17214;SDS011;8723;51.502;6.918;2023-05-15T13:56:13;104.75;;;100.07;;
17214;SDS011;8723;51.502;6.918;2023-05-15T13:58:40;133.50;;;127.72;;
17214;SDS011;8723;51.502;6.918;2023-05-15T14:01:07;138.40;;;131.80;;
17214;SDS011;8723;51.502;6.918;2023-05-15T14:03:35;39.08;;;36.63;;
17214;SDS011;8723;51.502;6.918;2023-05-15T14:06:02;119.57;;;114.32;;
17214;SDS011;8723;51.502;6.918;2023-05-15T14:08:29;60.70;;;57.95;;
17214;SDS011;8723;51.502;6.918;2023-05-15T14:10:56;87.93;;;83.78;;
17214;SDS011;8723;51.502;6.918;2023-05-15T14:13:23;41.53;;;39.33;;
17214;SDS011;8723;51.502;6.918;2023-05-15T14:15:50;62.38;;;59.60;;
17214;SDS011;8723;51.502;6.918;2023-05-15T14:18:17;64.78;;;61.97;;
17214;SDS011;8723;51.502;6.918;2023-05-15T14:20:45;69.25;;;65.82;;
17214;SDS011;8723;51.502;6.918;2023-05-15T14:23:12;121.45;;;116.47;;
17214;SDS011;8723;51.502;6.918;2023-05-15T14:25:39;36.38;;;34.33;;
17214;SDS011;8723;51.502;6.918;2023-05-15T14:28:06;59.00;;;56.40;;
17214;SDS011;8723;51.502;6.918;2023-05-15T14:30:33;203.75;;;195.27;;